OI47 weather

Channel 10/Wbns-Tv Heliport
Columbus, Ohio, United States

Public forecast

Using degrees Fahrenheit for public forecast. Weather courtesy of forecast.io.

Closest aviation weather report (METAR) to Channel 10/Wbns-Tv Heliport

Closest report is John Glenn Columbus International Airport, 6.4 nm (11.9 km) ENE. Retrieved 2020/06/01 22:51 UTC (1 hour ago):

KCMH 012251Z 19006KT 10SM FEW190 BKN240 22/00 A3017 RMK AO2 SLP215 T02170000

Closest aviation forecast (TAF) to Channel 10/Wbns-Tv Heliport

Closest forecast is John Glenn Columbus International Airport, 6.4 nm (11.9 km) ENE. Retrieved 2020-06-02 00:42 UTC (0 seconds ago):

TAF KCMH 012339Z 0200/0224 19004KT P6SM BKN100 FM021200 21010KT P6SM FEW060 FM021500 25015G23KT P6SM FEW070